Time;durP1;ratioP1;P1;durP2;ratioP2;P2;SDS_P1;SDS_P2;PMS_P1;PMS_P2;Temp;Humidity;BMP_temperature;BMP_pressure;BME280_temperature;BME280_humidity;BME280_pressure;Samples;Min_cycle;Max_cycle;Signal;HPM_P1;HPM_P2
2022/05/23 00:02:08;;;;;;;7.00;2.90;;;18.00;99.90;;;;;;4941934;29;20544;-88
2022/05/23 00:04:34;;;;;;;2.70;1.70;;;18.00;99.90;;;;;;4944300;29;20495;-85
2022/05/23 00:07:01;;;;;;;2.27;1.93;;;18.50;99.90;;;;;;4933989;29;20444;-86
2022/05/23 00:09:29;;;;;;;3.50;2.00;;;17.90;99.90;;;;;;4934415;29;20440;-88
2022/05/23 00:11:55;;;;;;;4.17;2.57;;;17.60;99.90;;;;;;4939762;29;20554;-87
2022/05/23 00:14:20;;;;;;;3.10;2.60;;;17.50;99.90;;;;;;4940878;29;20579;-88
2022/05/23 00:16:49;;;;;;;3.80;2.07;;;17.60;99.90;;;;;;4936523;29;20441;-87
2022/05/23 00:19:15;;;;;;;2.03;1.77;;;17.60;99.90;;;;;;4940335;29;20204;-87
2022/05/23 00:21:42;;;;;;;2.70;1.80;;;17.50;99.90;;;;;;4938445;29;20505;-88
2022/05/23 00:24:09;;;;;;;3.80;2.10;;;17.40;99.90;;;;;;4939509;29;21009;-87
2022/05/23 00:26:35;;;;;;;1.83;1.73;;;17.30;99.90;;;;;;4937927;29;20978;-87
2022/05/23 00:29:02;;;;;;;4.50;2.63;;;17.20;99.90;;;;;;4941030;29;20472;-88
2022/05/23 00:31:27;;;;;;;5.00;2.10;;;17.10;99.90;;;;;;4937202;29;21024;-88
2022/05/23 00:36:38;;;;;;;2.37;2.13;;;17.10;99.90;;;;;;4942390;29;20263;-86
2022/05/23 00:39:04;;;;;;;2.50;2.17;;;;;;;;;;4939565;29;20448;-86
2022/05/23 00:44:22;;;;;;;2.47;1.73;;;16.40;99.90;;;;;;4938445;29;21146;-85
2022/05/23 00:46:59;;;;;;;2.80;2.17;;;16.40;99.90;;;;;;4937705;29;20511;-84
2022/05/23 00:49:32;;;;;;;4.17;2.27;;;16.30;99.90;;;;;;4940460;29;20453;-83
2022/05/23 00:52:03;;;;;;;3.47;2.43;;;15.90;99.90;;;;;;4935874;29;20462;-85
2022/05/23 00:54:34;;;;;;;5.23;2.20;;;15.80;99.90;;;;;;4940532;29;20437;-84
2022/05/23 00:57:00;;;;;;;8.87;2.53;;;15.80;99.90;;;;;;4948472;28;20953;-85
2022/05/23 00:59:32;;;;;;;3.03;2.20;;;15.80;99.90;;;;;;4936811;29;20490;-83
2022/05/23 01:01:59;;;;;;;2.47;2.27;;;15.80;99.90;;;;;;4935964;29;20196;-83
2022/05/23 01:04:25;;;;;;;2.63;2.07;;;;;;;;;;4938981;29;20445;-84
2022/05/23 01:06:51;;;;;;;7.00;2.40;;;15.60;99.90;;;;;;4940896;29;20445;-86
2022/05/23 01:09:20;;;;;;;2.13;1.87;;;;;;;;;;4941128;29;21020;-86
2022/05/23 01:11:46;;;;;;;2.17;1.97;;;15.50;99.90;;;;;;4939217;29;20185;-83
2022/05/23 01:14:11;;;;;;;6.27;2.70;;;15.40;99.90;;;;;;4941554;29;20429;-85
2022/05/23 01:16:39;;;;;;;3.13;2.10;;;15.40;99.90;;;;;;4942593;29;20457;-85
2022/05/23 01:19:04;;;;;;;6.10;2.50;;;;;;;;;;4936801;29;20192;-88
2022/05/23 01:21:41;;;;;;;5.63;2.20;;;15.30;99.90;;;;;;4937900;29;20421;-88
2022/05/23 01:24:29;;;;;;;2.83;2.20;;;15.30;99.90;;;;;;4937840;29;20429;-87
2022/05/23 01:26:57;;;;;;;7.03;2.47;;;15.30;99.90;;;;;;4933109;29;20476;-88
2022/05/23 01:29:23;;;;;;;3.50;2.10;;;15.10;99.90;;;;;;4941505;29;20436;-87
2022/05/23 01:31:49;;;;;;;2.77;2.47;;;15.10;99.90;;;;;;4936229;29;20445;-85
2022/05/23 01:34:15;;;;;;;4.60;2.07;;;;;;;;;;4940244;29;20472;-84
2022/05/23 01:36:41;;;;;;;2.13;1.73;;;;;;;;;;4938473;29;20279;-86
2022/05/23 01:39:06;;;;;;;2.53;2.07;;;14.80;99.90;;;;;;4943297;29;20433;-85
2022/05/23 01:41:32;;;;;;;3.30;2.40;;;14.80;99.90;;;;;;4943803;29;20820;-85
2022/05/23 01:43:58;;;;;;;5.10;2.60;;;;;;;;;;4937835;29;20340;-85
2022/05/23 01:46:24;;;;;;;5.17;2.70;;;14.70;99.90;;;;;;4941145;29;20205;-85
2022/05/23 01:48:50;;;;;;;2.38;2.17;;;14.60;99.90;;;;;;4939682;29;20437;-84
2022/05/23 01:51:15;;;;;;;6.30;2.30;;;14.60;99.90;;;;;;4944456;29;20228;-87
2022/05/23 01:53:42;;;;;;;4.30;2.27;;;;;;;;;;4943862;29;20197;-86
2022/05/23 01:56:08;;;;;;;2.33;2.07;;;14.50;99.90;;;;;;4943330;29;20209;-86
2022/05/23 02:01:18;;;;;;;6.15;2.35;;;14.50;99.90;;;;;;4943457;29;20271;-86
2022/05/23 02:03:46;;;;;;;2.60;2.40;;;14.40;99.90;;;;;;4940075;29;20226;-86
2022/05/23 02:06:13;;;;;;;5.57;2.70;;;14.30;99.90;;;;;;4943345;29;20213;-86
2022/05/23 02:08:39;;;;;;;3.72;2.15;;;14.40;99.90;;;;;;4943956;29;20515;-87
2022/05/23 02:11:06;;;;;;;2.83;2.30;;;14.30;99.90;;;;;;4943181;29;20198;-86
2022/05/23 02:13:37;;;;;;;2.95;2.65;;;14.30;99.90;;;;;;4939391;29;20461;-86
2022/05/23 02:16:03;;;;;;;2.85;2.60;;;14.60;99.90;;;;;;4941318;29;20244;-84
2022/05/23 02:18:30;;;;;;;3.37;2.10;;;14.30;99.90;;;;;;4942011;29;20188;-84
2022/05/23 02:20:56;;;;;;;3.93;2.67;;;14.30;99.90;;;;;;4943460;29;20903;-84
2022/05/23 02:23:22;;;;;;;7.17;3.33;;;14.30;99.90;;;;;;4940700;29;21222;-86
2022/05/23 02:25:47;;;;;;;5.33;2.70;;;14.30;99.90;;;;;;4942160;29;20480;-86
2022/05/23 02:28:13;;;;;;;4.30;2.80;;;14.30;99.90;;;;;;4939635;29;20501;-85
2022/05/23 02:30:39;;;;;;;3.40;3.10;;;14.30;99.90;;;;;;4940795;29;20215;-85
2022/05/23 02:33:04;;;;;;;3.40;2.70;;;14.40;99.90;;;;;;4941238;29;20205;-87
2022/05/23 02:35:30;;;;;;;2.67;2.37;;;14.30;99.90;;;;;;4941834;29;20219;-87
2022/05/23 02:37:57;;;;;;;3.73;2.80;;;14.30;99.90;;;;;;4941770;29;20229;-84
2022/05/23 02:40:23;;;;;;;3.13;2.50;;;14.20;99.90;;;;;;4941456;29;20465;-85
2022/05/23 02:42:48;;;;;;;4.80;2.97;;;14.10;99.90;;;;;;4942012;29;20184;-88
2022/05/23 02:45:14;;;;;;;5.13;2.90;;;13.90;99.90;;;;;;4942277;29;20461;-81
2022/05/23 02:47:40;;;;;;;2.93;2.73;;;14.10;99.90;;;;;;4937552;29;20184;-82
2022/05/23 02:50:08;;;;;;;3.60;2.40;;;14.10;99.90;;;;;;4938180;29;20196;-85
2022/05/23 02:52:34;;;;;;;2.87;2.57;;;14.00;99.90;;;;;;4938879;29;20205;-86
2022/05/23 02:55:00;;;;;;;2.80;2.60;;;14.00;99.90;;;;;;4938105;29;20820;-85
2022/05/23 02:57:26;;;;;;;4.43;2.83;;;14.10;99.90;;;;;;4937593;29;20191;-86
2022/05/23 02:59:51;;;;;;;3.87;2.93;;;14.20;99.90;;;;;;4938057;29;20491;-86
2022/05/23 03:05:01;;;;;;;4.78;2.15;;;14.20;99.90;;;;;;4939596;29;20756;-86
2022/05/23 03:07:26;;;;;;;3.60;2.80;;;14.30;99.90;;;;;;4940588;29;20216;-83
2022/05/23 03:09:52;;;;;;;6.33;3.37;;;14.40;99.90;;;;;;4936174;29;20272;-85
2022/05/23 03:12:17;;;;;;;6.40;2.97;;;15.60;99.90;;;;;;4937982;29;20233;-87
2022/05/23 03:14:43;;;;;;;3.60;2.80;;;14.70;99.90;;;;;;4936140;29;20884;-84
2022/05/23 03:17:09;;;;;;;4.20;3.37;;;14.80;99.90;;;;;;4937138;29;20285;-81
2022/05/23 03:19:36;;;;;;;3.97;3.10;;;14.70;99.90;;;;;;4937137;29;20209;-81
2022/05/23 03:27:31;;;;;;;4.43;3.77;;;14.70;99.90;;;;;;4939106;29;20192;-83
2022/05/23 03:29:56;;;;;;;8.70;4.87;;;14.60;99.90;;;;;;4938771;29;21013;-82
2022/05/23 03:32:23;;;;;;;7.37;5.67;;;14.70;99.90;;;;;;4940493;29;20464;-84
2022/05/23 03:34:48;;;;;;;11.32;4.93;;;14.60;99.90;;;;;;4937398;29;20807;-84
2022/05/23 03:37:14;;;;;;;4.50;4.10;;;14.60;99.90;;;;;;4937558;29;20185;-85
2022/05/23 03:39:40;;;;;;;5.70;5.03;;;;;;;;;;4936278;29;20193;-84
2022/05/23 03:42:06;;;;;;;10.63;4.40;;;14.60;99.90;;;;;;4934974;29;20185;-85
2022/05/23 03:44:32;;;;;;;6.35;4.53;;;14.60;99.90;;;;;;4939672;29;20453;-84
2022/05/23 03:46:58;;;;;;;8.67;5.23;;;14.60;99.90;;;;;;4937486;29;20196;-83
2022/05/23 03:49:23;;;;;;;7.13;4.90;;;14.70;99.90;;;;;;4937891;29;20468;-83
2022/05/23 03:51:49;;;;;;;8.10;4.70;;;14.80;99.90;;;;;;4937378;29;20185;-85
2022/05/23 03:54:15;;;;;;;8.40;4.33;;;;;;;;;;4935722;29;20188;-85
2022/05/23 03:56:40;;;;;;;6.18;3.78;;;14.90;99.90;;;;;;4935671;29;20177;-85
2022/05/23 03:59:06;;;;;;;4.43;4.00;;;14.90;99.90;;;;;;4936143;29;20187;-84
2022/05/23 04:01:32;;;;;;;4.50;3.30;;;15.00;99.90;;;;;;4931433;29;20212;-81
2022/05/23 04:03:58;;;;;;;3.57;2.50;;;15.20;99.90;;;;;;4941177;29;20173;-84
2022/05/23 04:06:24;;;;;;;5.43;3.03;;;15.30;99.90;;;;;;4937889;29;20971;-84
2022/05/23 04:08:50;;;;;;;3.50;3.20;;;16.00;99.90;;;;;;4960002;23;20451;-82
2022/05/23 04:11:16;;;;;;;6.60;3.73;;;13.70;99.90;;;;;;4902416;29;20214;-85
2022/05/23 04:13:41;;;;;;;3.93;3.53;;;15.80;99.90;;;;;;4914377;29;20472;-88
2022/05/23 04:16:07;;;;;;;9.10;3.90;;;;;;;;;;4918613;29;20186;-88
2022/05/23 04:18:34;;;;;;;14.40;4.00;;;15.60;99.90;;;;;;4916684;29;20217;-88
2022/05/23 04:21:01;;;;;;;5.83;4.07;;;;;;;;;;4920519;29;20477;-90
2022/05/23 04:23:27;;;;;;;11.60;4.20;;;15.30;99.90;;;;;;4919633;29;20561;-86
2022/05/23 04:25:53;;;;;;;7.87;4.50;;;;;;;;;;4914638;29;20564;-84
2022/05/23 04:28:20;;;;;;;7.03;5.00;;;15.10;99.90;;;;;;4905440;29;20222;-87
2022/05/23 04:30:46;;;;;;;10.07;4.55;;;15.10;99.90;;;;;;4916731;29;21042;-82
2022/05/23 04:35:58;;;;;;;6.30;4.57;;;15.00;99.90;;;;;;4912036;29;20433;-83
2022/05/23 04:38:24;;;;;;;5.23;4.07;;;15.00;99.90;;;;;;4924373;29;20446;-84
2022/05/23 04:40:49;;;;;;;6.70;4.60;;;14.90;99.90;;;;;;4911713;29;20550;-82
2022/05/23 04:43:15;;;;;;;6.83;3.27;;;14.90;99.90;;;;;;4896832;29;20201;-83
2022/05/23 04:45:41;;;;;;;6.68;3.70;;;14.80;99.90;;;;;;4897324;29;20189;-81
2022/05/23 04:50:52;;;;;;;5.03;3.60;;;14.70;99.90;;;;;;4901795;29;20215;-85
2022/05/23 04:53:17;;;;;;;4.30;3.60;;;14.70;99.90;;;;;;4897029;29;21367;-83
2022/05/23 04:55:43;;;;;;;3.70;2.97;;;14.70;99.90;;;;;;4897816;29;20565;-81
2022/05/23 04:58:10;;;;;;;5.53;3.77;;;14.70;99.90;;;;;;4884825;29;20441;-83
2022/05/23 05:00:39;;;;;;;8.20;4.68;;;14.80;99.90;;;;;;4896462;29;20548;-82
2022/05/23 05:03:05;;;;;;;5.30;4.40;;;14.90;99.90;;;;;;4909649;29;20196;-81
2022/05/23 05:05:33;;;;;;;5.33;4.77;;;15.00;99.90;;;;;;4904378;29;20820;-81
2022/05/23 05:07:59;;;;;;;14.13;6.50;;;15.00;99.90;;;;;;4903264;29;20528;-81
2022/05/23 05:10:25;;;;;;;5.17;4.30;;;15.20;99.90;;;;;;4902010;29;21092;-82
2022/05/23 05:12:52;;;;;;;10.70;5.10;;;15.10;99.90;;;;;;4910499;29;20485;-84
2022/05/23 05:15:18;;;;;;;7.07;5.10;;;15.10;99.90;;;;;;4908421;29;20454;-83
2022/05/23 05:17:44;;;;;;;8.13;5.53;;;15.00;99.90;;;;;;4911542;29;20445;-83
2022/05/23 05:20:11;;;;;;;7.60;5.20;;;14.90;99.90;;;;;;4899881;29;21104;-83
2022/05/23 05:22:36;;;;;;;8.40;5.57;;;15.00;99.90;;;;;;4899972;29;20501;-84
2022/05/23 05:25:04;;;;;;;10.27;5.13;;;15.10;99.90;;;;;;4911266;29;20528;-84
2022/05/23 05:27:29;;;;;;;6.07;4.93;;;15.00;99.90;;;;;;4910542;29;20185;-84
2022/05/23 05:29:56;;;;;;;8.93;4.83;;;15.00;99.90;;;;;;4913418;29;20218;-83
2022/05/23 05:32:38;;;;;;;5.13;4.57;;;15.00;99.90;;;;;;4911349;29;20252;-84
2022/05/23 05:35:28;;;;;;;9.02;5.65;;;14.90;99.90;;;;;;4915102;29;20237;-84
2022/05/23 05:38:09;;;;;;;8.63;6.70;;;14.90;99.90;;;;;;4910965;29;20345;-83
2022/05/23 05:40:35;;;;;;;6.00;5.40;;;14.80;99.90;;;;;;4909730;29;20300;-83
2022/05/23 05:43:16;;;;;;;9.73;5.78;;;14.60;99.90;;;;;;4911521;29;20253;-83
2022/05/23 05:45:55;;;;;;;9.32;5.55;;;14.50;99.90;;;;;;4913490;29;20729;-84
2022/05/23 05:48:21;;;;;;;8.20;5.80;;;14.50;99.90;;;;;;4910766;29;20190;-83
2022/05/23 05:50:49;;;;;;;7.10;6.40;;;14.40;99.90;;;;;;4910815;29;20245;-83
2022/05/23 05:53:24;;;;;;;9.68;7.05;;;14.40;99.90;;;;;;4911099;29;20557;-83
2022/05/23 05:55:50;;;;;;;6.35;5.45;;;14.40;99.90;;;;;;4914789;29;20186;-82
2022/05/23 05:58:17;;;;;;;7.67;6.13;;;14.50;99.90;;;;;;4913872;29;20196;-84
2022/05/23 06:00:43;;;;;;;7.72;5.88;;;14.50;99.90;;;;;;4912457;29;20469;-83
2022/05/23 06:03:08;;;;;;;9.83;6.20;;;14.60;99.90;;;;;;4911071;29;20799;-83
2022/05/23 06:11:23;;;;;;;8.27;6.23;;;14.70;99.90;;;;;;4914913;29;20288;-83
2022/05/23 06:13:49;;;;;;;5.20;4.60;;;15.10;99.90;;;;;;4913817;29;20484;-84
2022/05/23 06:16:15;;;;;;;7.83;5.80;;;15.30;99.90;;;;;;4911251;29;20195;-84
2022/05/23 06:18:42;;;;;;;5.07;4.57;;;15.40;99.90;;;;;;4910048;29;20441;-85
2022/05/23 06:21:09;;;;;;;10.73;5.03;;;15.40;99.90;;;;;;4912600;29;20540;-82
2022/05/23 06:23:42;;;;;;;4.85;4.45;;;15.40;99.90;;;;;;4911199;29;20437;-82
2022/05/23 06:26:08;;;;;;;6.80;4.87;;;15.40;99.90;;;;;;4902329;29;20534;-82
2022/05/23 06:28:36;;;;;;;7.10;3.80;;;15.40;99.90;;;;;;4907179;29;20441;-85
2022/05/23 06:31:02;;;;;;;5.38;3.53;;;15.40;99.90;;;;;;4909577;29;20469;-83
2022/05/23 06:33:28;;;;;;;8.73;4.03;;;15.40;99.90;;;;;;4909144;29;20198;-84
2022/05/23 06:35:54;;;;;;;4.67;3.77;;;15.50;99.90;;;;;;4911998;29;20216;-85
2022/05/23 06:38:19;;;;;;;4.33;3.27;;;15.60;99.90;;;;;;4911695;29;20445;-84
2022/05/23 06:40:48;;;;;;;7.73;3.83;;;15.70;99.90;;;;;;4911423;29;20209;-83
2022/05/23 06:43:14;;;;;;;15.20;3.53;;;15.80;99.90;;;;;;4913718;29;20562;-82
2022/05/23 06:45:39;;;;;;;5.00;3.17;;;15.90;99.90;;;;;;4912839;29;20449;-82
2022/05/23 06:48:05;;;;;;;7.00;3.93;;;16.20;99.90;;;;;;4913440;29;20212;-84
2022/05/23 06:50:31;;;;;;;3.90;3.07;;;16.10;99.90;;;;;;4915416;29;20290;-83
2022/05/23 06:52:57;;;;;;;6.20;4.13;;;16.00;99.90;;;;;;4912510;29;20536;-82
2022/05/23 06:55:22;;;;;;;3.83;3.00;;;16.20;99.90;;;;;;4914250;29;20212;-84
2022/05/23 06:57:48;;;;;;;3.87;2.90;;;16.30;99.90;;;;;;4911879;29;20197;-82
2022/05/23 07:00:14;;;;;;;3.93;3.33;;;16.40;99.90;;;;;;4913060;29;20233;-83
2022/05/23 07:02:39;;;;;;;6.10;4.20;;;16.60;99.90;;;;;;4907693;29;20686;-84
2022/05/23 07:13:18;;;;;;;3.73;3.33;;;19.50;99.90;;;;;;4910758;29;20485;-81
2022/05/23 07:15:47;;;;;;;4.70;2.73;;;19.90;99.90;;;;;;4911731;29;20449;-84
2022/05/23 07:18:14;;;;;;;6.90;3.50;;;20.10;99.90;;;;;;4898455;29;20228;-83
2022/05/23 07:20:41;;;;;;;4.47;3.23;;;20.30;99.90;;;;;;4921742;29;21102;-82
2022/05/23 07:23:07;;;;;;;7.73;3.47;;;20.40;99.90;;;;;;4907983;29;20452;-82
2022/05/23 07:25:32;;;;;;;9.40;5.10;;;20.20;99.90;;;;;;4910721;29;20442;-82
2022/05/23 07:27:58;;;;;;;6.27;3.77;;;19.50;99.90;;;;;;4905453;29;20441;-82
2022/05/23 07:30:24;;;;;;;23.00;6.60;;;19.20;99.90;;;;;;4909467;29;20233;-84
2022/05/23 07:32:49;;;;;;;10.43;5.30;;;18.50;99.90;;;;;;4906422;29;20224;-82
2022/05/23 07:35:19;;;;;;;9.30;4.60;;;18.70;99.90;;;;;;4907357;29;20223;-84
2022/05/23 07:37:44;;;;;;;8.43;4.60;;;18.70;99.90;;;;;;4903884;29;20186;-83
2022/05/23 07:40:11;;;;;;;5.53;4.30;;;18.80;99.90;;;;;;4908585;29;20491;-85
2022/05/23 07:42:37;;;;;;;5.03;3.73;;;19.80;99.90;;;;;;4909204;29;20189;-83
2022/05/23 07:45:04;;;;;;;5.93;3.10;;;20.70;99.90;;;;;;4908720;29;20449;-83
2022/05/23 07:47:30;;;;;;;8.03;4.37;;;20.80;99.90;;;;;;4906303;29;20245;-82
2022/05/23 07:49:55;;;;;;;5.47;4.53;;;20.10;99.90;;;;;;4910187;29;20459;-85
2022/05/23 07:52:21;;;;;;;9.50;4.27;;;19.90;99.90;;;;;;4904917;29;20201;-83
2022/05/23 08:00:33;;;;;;;5.77;4.00;;;20.80;99.90;;;;;;4908807;29;20581;-84
2022/05/23 08:02:59;;;;;;;9.03;4.73;;;20.10;99.90;;;;;;4907567;29;20434;-81
2022/05/23 08:05:24;;;;;;;6.60;3.93;;;20.10;99.90;;;;;;4907142;29;20467;-82
2022/05/23 08:07:50;;;;;;;5.53;4.73;;;20.30;99.90;;;;;;4909541;29;20298;-84
2022/05/23 08:10:16;;;;;;;11.40;4.47;;;19.80;99.90;;;;;;4909402;29;20232;-83
2022/05/23 08:12:47;;;;;;;5.90;4.57;;;19.60;99.90;;;;;;4906811;29;20209;-85
2022/05/23 08:15:15;;;;;;;5.63;4.67;;;19.30;99.90;;;;;;4904452;29;20194;-80
2022/05/23 08:17:41;;;;;;;6.20;3.83;;;19.60;99.90;;;;;;4907291;29;20469;-83
2022/05/23 08:20:07;;;;;;;7.33;3.50;;;20.00;99.90;;;;;;4910409;29;20830;-83
2022/05/23 08:22:32;;;;;;;5.03;4.07;;;20.20;99.90;;;;;;4910689;29;20189;-83
2022/05/23 08:24:58;;;;;;;5.57;4.57;;;21.00;99.90;;;;;;4914885;29;20452;-84
2022/05/23 08:27:24;;;;;;;6.30;3.20;;;20.80;99.90;;;;;;4913322;29;20189;-83
2022/05/23 08:29:52;;;;;;;4.87;3.70;;;20.80;99.90;;;;;;4912513;29;20986;-82
2022/05/23 08:32:18;;;;;;;5.17;4.27;;;20.40;99.90;;;;;;4914078;29;20998;-85
2022/05/23 08:34:44;;;;;;;4.30;3.67;;;20.70;99.90;;;;;;4920337;29;20478;-83
2022/05/23 08:37:09;;;;;;;4.63;4.10;;;20.90;99.90;;;;;;4909893;29;20441;-84
2022/05/23 08:39:35;;;;;;;5.50;4.13;;;21.20;99.90;;;;;;4910005;29;20216;-83
2022/05/23 08:42:25;;;;;;;8.53;4.70;;;21.60;99.90;;;;;;4918936;29;20186;-84
2022/05/23 08:45:04;;;;;;;12.67;4.47;;;21.80;99.90;;;;;;4912371;29;20208;-85
2022/05/23 08:48:07;;;;;;;4.10;3.50;;;21.60;99.90;;;;;;4908285;29;20449;-84
2022/05/23 08:51:18;;;;;;;6.00;3.80;;;21.50;99.90;;;;;;4911835;29;20472;-82
2022/05/23 08:53:58;;;;;;;5.00;4.23;;;22.30;99.90;;;;;;4836764;29;20471;-84
2022/05/23 08:56:31;;;;;;;4.10;3.70;;;23.20;99.90;;;;;;4910604;29;21313;-85
2022/05/23 08:59:00;;;;;;;3.90;3.50;;;23.40;99.90;;;;;;4908376;29;20445;-84
2022/05/23 09:01:34;;;;;;;10.40;4.27;;;25.20;99.90;;;;;;4913140;29;20446;-84
2022/05/23 09:04:13;;;;;;;4.07;3.67;;;25.30;99.90;;;;;;4904241;29;20512;-85
2022/05/23 09:06:47;;;;;;;5.17;3.80;;;24.70;99.90;;;;;;4905079;29;20457;-85
2022/05/23 09:09:17;;;;;;;5.33;4.10;;;24.70;99.90;;;;;;4910390;29;20484;-83
2022/05/23 09:11:47;;;;;;;4.67;4.13;;;25.80;99.90;;;;;;4911054;29;20444;-83
2022/05/23 09:14:16;;;;;;;5.80;4.10;;;26.80;99.90;;;;;;4912310;29;20533;-84
2022/05/23 09:16:42;;;;;;;5.13;4.10;;;;;;;;;;4912653;29;20444;-83
2022/05/23 09:19:32;;;;;;;5.50;4.30;;;27.10;99.90;;;;;;4911436;29;20489;-83
2022/05/23 09:22:12;;;;;;;3.83;3.53;;;28.10;99.90;;;;;;4910861;29;20439;-86
2022/05/23 09:25:00;;;;;;;4.27;3.43;;;30.50;99.90;;;;;;4909862;29;20429;-84
2022/05/23 09:27:37;;;;;;;4.50;3.67;;;30.80;99.90;;;;;;4919855;29;20452;-86
2022/05/23 09:30:08;;;;;;;4.27;3.87;;;29.00;99.90;;;;;;4904228;29;20834;-83
2022/05/23 09:32:56;;;;;;;4.60;4.20;;;28.90;99.90;;;;;;4911372;29;20895;-83
2022/05/23 09:35:29;;;;;;;6.43;3.50;;;26.80;99.90;;;;;;4913118;29;20468;-83
2022/05/23 09:38:14;;;;;;;4.67;3.57;;;27.20;99.90;;;;;;4910791;29;20505;-84
2022/05/23 09:40:39;;;;;;;4.00;3.60;;;27.20;99.90;;;;;;4904802;29;20493;-83
2022/05/23 09:49:12;;;;;;;4.57;3.70;;;24.80;99.90;;;;;;4913717;29;21626;-84
2022/05/23 09:51:57;;;;;;;7.20;4.53;;;24.00;99.90;;;;;;4911947;29;20457;-84
2022/05/23 09:54:36;;;;;;;5.70;3.70;;;23.70;99.90;;;;;;4915011;29;20449;-83
2022/05/23 09:57:06;;;;;;;7.23;4.80;;;23.50;99.90;;;;;;4912855;29;20442;-85
2022/05/23 09:59:34;;;;;;;8.00;5.30;;;22.80;99.90;;;;;;4910189;29;20510;-84
2022/05/23 10:02:30;;;;;;;9.70;4.03;;;22.90;99.90;;;;;;4911487;29;20441;-84
2022/05/23 10:04:56;;;;;;;5.60;4.50;;;23.10;99.90;;;;;;4912850;29;20458;-85
2022/05/23 10:07:32;;;;;;;9.13;4.70;;;23.30;99.90;;;;;;4905327;29;20538;-83
2022/05/23 10:10:22;;;;;;;7.87;5.40;;;23.40;99.90;;;;;;4933238;23;22428;-83
2022/05/23 10:12:48;;;;;;;7.47;4.60;;;23.10;99.90;;;;;;4947933;28;20983;-84
2022/05/23 10:15:25;;;;;;;5.77;5.27;;;23.10;99.90;;;;;;4950344;28;20478;-82
2022/05/23 10:18:04;;;;;;;7.50;5.07;;;22.60;99.90;;;;;;4952999;28;20455;-84
2022/05/23 10:20:36;;;;;;;5.87;4.60;;;22.30;99.90;;;;;;4944693;28;20464;-84
2022/05/23 10:23:19;;;;;;;7.37;3.77;;;21.90;99.90;;;;;;4934735;29;20529;-83
2022/05/23 10:25:50;;;;;;;7.40;4.43;;;21.80;99.90;;;;;;4935389;29;20535;-84
2022/05/23 10:28:22;;;;;;;10.37;5.27;;;21.80;99.90;;;;;;4922933;29;20444;-84
2022/05/23 10:30:58;;;;;;;8.40;4.77;;;21.60;99.90;;;;;;4950569;28;20563;-83
2022/05/23 10:33:27;;;;;;;8.70;5.03;;;21.30;99.90;;;;;;4933144;29;20464;-84
2022/05/23 10:36:04;;;;;;;8.53;4.30;;;21.30;99.90;;;;;;4934968;29;20512;-83
2022/05/23 10:42:07;;;;;;;5.90;4.20;;;21.10;99.90;;;;;;4934334;29;20463;-84
2022/05/23 10:44:38;;;;;;;6.93;4.30;;;21.20;99.90;;;;;;4936066;29;20429;-83
2022/05/23 10:47:38;;;;;;;8.43;4.63;;;21.60;99.90;;;;;;4930514;29;20420;-83
2022/05/23 10:50:28;;;;;;;6.57;4.93;;;21.60;99.90;;;;;;4935748;29;20461;-84
2022/05/23 10:53:28;;;;;;;4.70;4.20;;;21.40;99.90;;;;;;4935694;29;20484;-83
2022/05/23 10:55:59;;;;;;;19.20;5.63;;;21.40;99.90;;;;;;4948591;28;20433;-83
2022/05/23 10:58:54;;;;;;;14.33;5.23;;;21.60;99.90;;;;;;4933646;29;20447;-83
2022/05/23 11:01:50;;;;;;;16.27;5.33;;;21.50;99.90;;;;;;4930477;29;20464;-83
2022/05/23 11:04:43;;;;;;;5.33;3.70;;;21.10;99.90;;;;;;4933720;29;20428;-83
2022/05/23 11:07:34;;;;;;;8.90;4.63;;;21.10;99.90;;;;;;4929042;29;20437;-83
2022/05/23 11:10:07;;;;;;;11.03;5.00;;;21.00;99.90;;;;;;4935666;29;20464;-83
2022/05/23 11:12:53;;;;;;;5.13;4.53;;;20.90;99.90;;;;;;4930406;29;20488;-84
2022/05/23 11:15:35;;;;;;;6.53;5.20;;;20.80;99.90;;;;;;4934651;29;20572;-83
2022/05/23 11:18:07;;;;;;;9.83;4.77;;;20.70;99.90;;;;;;4935793;29;20436;-84
2022/05/23 11:20:37;;;;;;;6.93;5.43;;;20.40;99.90;;;;;;4936562;29;20575;-82
2022/05/23 11:23:28;;;;;;;13.17;4.80;;;20.40;99.90;;;;;;4936389;29;20455;-83
2022/05/23 11:26:08;;;;;;;6.47;5.27;;;20.30;99.90;;;;;;4928960;29;20448;-83
2022/05/23 11:34:36;;;;;;;12.30;6.30;;;19.40;99.90;;;;;;4935698;29;20444;-83
2022/05/23 11:37:09;;;;;;;12.23;5.70;;;19.30;99.90;;;;;;4937418;29;20414;-83
2022/05/23 11:39:53;;;;;;;10.70;6.27;;;19.30;99.90;;;;;;4935480;29;20417;-83
2022/05/23 11:42:22;;;;;;;11.33;5.70;;;19.30;99.90;;;;;;4928087;29;20492;-83
2022/05/23 11:44:50;;;;;;;5.83;4.70;;;19.20;99.90;;;;;;4936738;29;20816;-84
2022/05/23 11:47:23;;;;;;;9.13;4.70;;;19.00;99.90;;;;;;4935172;29;20515;-83
2022/05/23 11:50:04;;;;;;;8.57;4.90;;;18.90;99.90;;;;;;4932614;29;20515;-82
2022/05/23 11:52:40;;;;;;;9.77;5.27;;;18.80;99.90;;;;;;4941289;28;20489;-83
2022/05/23 11:55:44;;;;;;;7.73;5.20;;;18.70;99.90;;;;;;4937556;29;20989;-83
2022/05/23 11:58:23;;;;;;;6.60;5.87;;;18.50;99.90;;;;;;4939439;29;20517;-83
2022/05/23 12:01:04;;;;;;;9.13;5.73;;;18.30;99.90;;;;;;4937617;29;20990;-84
2022/05/23 12:03:51;;;;;;;9.00;5.40;;;18.20;99.90;;;;;;4938535;29;20432;-83
2022/05/23 12:06:35;;;;;;;4.67;3.80;;;18.10;99.90;;;;;;4948812;28;20528;-84
2022/05/23 12:09:13;;;;;;;8.43;4.80;;;18.20;99.90;;;;;;4940437;29;20822;-82
2022/05/23 12:11:41;;;;;;;5.53;3.43;;;18.30;99.90;;;;;;4942340;29;20555;-84
2022/05/23 12:14:32;;;;;;;7.13;3.83;;;18.40;99.90;;;;;;4938674;29;20480;-84
2022/05/23 12:16:58;;;;;;;8.10;4.53;;;18.60;99.90;;;;;;4943731;29;20453;-83
2022/05/23 12:19:38;;;;;;;6.60;5.60;;;18.80;99.90;;;;;;4941256;29;20465;-82
2022/05/23 12:22:19;;;;;;;8.77;4.97;;;18.80;99.90;;;;;;4952023;28;20177;-84
2022/05/23 12:25:07;;;;;;;5.40;4.63;;;19.00;99.90;;;;;;4939678;29;21015;-83
2022/05/23 12:27:59;;;;;;;10.10;5.60;;;19.10;99.90;;;;;;4932413;29;20428;-83
2022/05/23 12:30:32;;;;;;;7.87;4.97;;;19.30;99.90;;;;;;4939839;29;21327;-84
2022/05/23 12:32:58;;;;;;;10.40;5.47;;;19.50;99.90;;;;;;4935386;29;21080;-83
2022/05/23 12:35:57;;;;;;;9.90;6.03;;;19.70;99.90;;;;;;4937872;29;20557;-84
2022/05/23 12:38:53;;;;;;;7.50;6.37;;;19.90;99.90;;;;;;4944720;29;20185;-84
2022/05/23 12:41:40;;;;;;;8.27;6.57;;;20.10;99.90;;;;;;4938694;29;20448;-84
2022/05/23 12:44:24;;;;;;;6.50;5.90;;;20.10;99.90;;;;;;4933998;29;20476;-83
2022/05/23 12:47:04;;;;;;;7.47;6.43;;;20.00;99.90;;;;;;4939763;29;20431;-83
2022/05/23 12:49:41;;;;;;;14.00;7.80;;;20.10;99.90;;;;;;4942649;29;20538;-84
2022/05/23 12:52:39;;;;;;;8.83;6.20;;;20.10;99.90;;;;;;4942558;29;20452;-83
2022/05/23 12:55:31;;;;;;;13.40;7.37;;;20.50;99.90;;;;;;4934447;29;20429;-83
2022/05/23 12:58:22;;;;;;;8.63;6.60;;;21.10;99.90;;;;;;4933419;29;20499;-83
2022/05/23 13:00:55;;;;;;;13.20;6.70;;;20.90;99.90;;;;;;4939352;29;20460;-83
2022/05/23 13:03:41;;;;;;;9.83;6.13;;;21.00;99.90;;;;;;4941782;29;20787;-83
2022/05/23 13:06:22;;;;;;;11.13;6.10;;;21.20;99.90;;;;;;4936747;29;20447;-82
2022/05/23 13:09:09;;;;;;;10.43;6.00;;;22.40;99.90;;;;;;4937473;29;20444;-82
2022/05/23 13:11:56;;;;;;;6.77;4.93;;;22.00;99.90;;;;;;4931805;29;20972;-83
2022/05/23 13:14:22;;;;;;;7.00;4.50;;;;;;;;;;4949877;28;20464;-83
2022/05/23 13:16:54;;;;;;;9.67;4.73;;;23.40;99.90;;;;;;4946279;29;20435;-84
2022/05/23 13:22:12;;;;;;;6.13;4.30;;;24.40;99.90;;;;;;4941458;29;20479;-84
2022/05/23 13:24:55;;;;;;;8.17;3.90;;;24.80;99.90;;;;;;4935964;29;20467;-84
2022/05/23 13:27:48;;;;;;;13.23;4.53;;;25.60;99.90;;;;;;4940395;29;20448;-84
2022/05/23 13:30:17;;;;;;;10.30;4.43;;;26.00;99.90;;;;;;4933801;29;20544;-82
2022/05/23 13:32:43;;;;;;;6.20;3.63;;;;;;;;;;4937536;29;20824;-84
2022/05/23 13:35:20;;;;;;;7.93;4.00;;;26.60;99.90;;;;;;4939387;29;20545;-83
2022/05/23 13:37:47;;;;;;;8.80;4.47;;;;;;;;;;4935313;29;20438;-83
2022/05/23 13:40:16;;;;;;;10.33;4.23;;;26.40;99.90;;;;;;4935186;29;20465;-82
2022/05/23 13:42:42;;;;;;;5.27;4.30;;;26.60;99.90;;;;;;4934471;29;20450;-83
2022/05/23 13:45:14;;;;;;;14.00;4.87;;;27.00;99.90;;;;;;4935146;29;20450;-84
2022/05/23 13:47:47;;;;;;;5.73;3.70;;;26.50;99.90;;;;;;4934429;29;20445;-83
2022/05/23 13:50:18;;;;;;;11.87;4.13;;;26.30;99.90;;;;;;4935077;29;20833;-82
2022/05/23 13:52:58;;;;;;;9.13;4.40;;;26.10;99.90;;;;;;4935636;29;20989;-82
2022/05/23 13:55:34;;;;;;;7.47;3.50;;;25.80;99.90;;;;;;4939732;29;20437;-83
2022/05/23 13:58:07;;;;;;;8.40;4.27;;;25.60;99.90;;;;;;4929619;29;20421;-84
2022/05/23 14:00:36;;;;;;;8.13;4.00;;;26.10;99.90;;;;;;4950091;28;21092;-83
2022/05/23 14:03:10;;;;;;;8.37;4.57;;;26.40;99.90;;;;;;4932362;29;20449;-84
2022/05/23 14:05:43;;;;;;;7.90;3.80;;;26.40;99.90;;;;;;4932452;29;20442;-83
2022/05/23 14:08:09;;;;;;;7.37;4.40;;;;;;;;;;4932881;29;20461;-82
2022/05/23 14:10:40;;;;;;;6.10;3.57;;;25.50;99.90;;;;;;4932057;29;20460;-82
2022/05/23 14:13:08;;;;;;;6.57;3.57;;;25.50;99.90;;;;;;4927730;29;20498;-83